sensor_id;sensor_type;location;lat;lon;timestamp;P1;durP1;ratioP1;P2;durP2;ratioP2
51862;SDS011;37900;52.996;6.278;2022-10-28T00:01:06;3.10;;;2.20;;
51862;SDS011;37900;52.996;6.278;2022-10-28T00:03:44;3.60;;;2.20;;
51862;SDS011;37900;52.996;6.278;2022-10-28T00:06:18;4.20;;;2.38;;
51862;SDS011;37900;52.996;6.278;2022-10-28T00:08:47;2.80;;;2.38;;
51862;SDS011;37900;52.996;6.278;2022-10-28T00:11:16;3.67;;;2.17;;
51862;SDS011;37900;52.996;6.278;2022-10-28T00:13:46;2.55;;;1.95;;
51862;SDS011;37900;52.996;6.278;2022-10-28T00:16:13;3.85;;;2.33;;
51862;SDS011;37900;52.996;6.278;2022-10-28T00:18:43;3.78;;;2.40;;
51862;SDS011;37900;52.996;6.278;2022-10-28T00:21:16;2.58;;;2.35;;
51862;SDS011;37900;52.996;6.278;2022-10-28T00:23:43;4.43;;;2.28;;
51862;SDS011;37900;52.996;6.278;2022-10-28T00:26:10;3.83;;;2.50;;
51862;SDS011;37900;52.996;6.278;2022-10-28T00:28:44;2.85;;;2.00;;
51862;SDS011;37900;52.996;6.278;2022-10-28T00:31:13;3.40;;;2.30;;
51862;SDS011;37900;52.996;6.278;2022-10-28T00:33:40;3.53;;;2.15;;
51862;SDS011;37900;52.996;6.278;2022-10-28T00:36:10;3.42;;;2.20;;
51862;SDS011;37900;52.996;6.278;2022-10-28T00:38:41;3.63;;;2.38;;
51862;SDS011;37900;52.996;6.278;2022-10-28T00:43:35;4.18;;;2.30;;
51862;SDS011;37900;52.996;6.278;2022-10-28T00:46:27;4.72;;;2.67;;
51862;SDS011;37900;52.996;6.278;2022-10-28T00:49:13;3.33;;;2.72;;
51862;SDS011;37900;52.996;6.278;2022-10-28T00:51:43;3.72;;;2.08;;
51862;SDS011;37900;52.996;6.278;2022-10-28T00:54:11;5.05;;;2.60;;
51862;SDS011;37900;52.996;6.278;2022-10-28T00:56:39;2.67;;;1.98;;
51862;SDS011;37900;52.996;6.278;2022-10-28T00:59:12;3.92;;;2.47;;
51862;SDS011;37900;52.996;6.278;2022-10-28T01:01:51;3.58;;;2.40;;
51862;SDS011;37900;52.996;6.278;2022-10-28T01:04:17;3.07;;;2.30;;
51862;SDS011;37900;52.996;6.278;2022-10-28T01:09:10;2.55;;;2.20;;
51862;SDS011;37900;52.996;6.278;2022-10-28T01:11:39;3.25;;;2.30;;
51862;SDS011;37900;52.996;6.278;2022-10-28T01:16:38;3.20;;;2.10;;
51862;SDS011;37900;52.996;6.278;2022-10-28T01:22:00;3.15;;;2.40;;
51862;SDS011;37900;52.996;6.278;2022-10-28T01:27:49;4.10;;;2.25;;
51862;SDS011;37900;52.996;6.278;2022-10-28T01:30:22;2.72;;;2.10;;
51862;SDS011;37900;52.996;6.278;2022-10-28T01:32:58;2.50;;;2.00;;
51862;SDS011;37900;52.996;6.278;2022-10-28T01:35:35;3.78;;;2.25;;
51862;SDS011;37900;52.996;6.278;2022-10-28T01:46:13;2.85;;;2.08;;
51862;SDS011;37900;52.996;6.278;2022-10-28T01:48:51;4.07;;;2.75;;
51862;SDS011;37900;52.996;6.278;2022-10-28T01:53:55;3.50;;;2.38;;
51862;SDS011;37900;52.996;6.278;2022-10-28T01:56:25;4.00;;;2.30;;
51862;SDS011;37900;52.996;6.278;2022-10-28T01:58:54;3.22;;;2.28;;
51862;SDS011;37900;52.996;6.278;2022-10-28T02:01:23;3.53;;;2.50;;
51862;SDS011;37900;52.996;6.278;2022-10-28T02:03:51;3.35;;;2.50;;
51862;SDS011;37900;52.996;6.278;2022-10-28T02:06:18;4.30;;;2.20;;
51862;SDS011;37900;52.996;6.278;2022-10-28T02:09:07;2.92;;;2.13;;
51862;SDS011;37900;52.996;6.278;2022-10-28T02:19:25;4.57;;;1.90;;
51862;SDS011;37900;52.996;6.278;2022-10-28T02:30:38;3.10;;;2.30;;
51862;SDS011;37900;52.996;6.278;2022-10-28T02:33:09;4.13;;;2.22;;
51862;SDS011;37900;52.996;6.278;2022-10-28T02:38:31;2.70;;;2.00;;
51862;SDS011;37900;52.996;6.278;2022-10-28T02:41:02;3.38;;;2.15;;
51862;SDS011;37900;52.996;6.278;2022-10-28T02:43:35;2.65;;;1.98;;
51862;SDS011;37900;52.996;6.278;2022-10-28T02:46:04;3.28;;;2.20;;
51862;SDS011;37900;52.996;6.278;2022-10-28T02:48:34;3.78;;;2.08;;
51862;SDS011;37900;52.996;6.278;2022-10-28T02:51:17;3.35;;;2.15;;
51862;SDS011;37900;52.996;6.278;2022-10-28T02:54:01;3.25;;;2.28;;
51862;SDS011;37900;52.996;6.278;2022-10-28T02:56:35;2.35;;;1.92;;
51862;SDS011;37900;52.996;6.278;2022-10-28T02:59:13;2.50;;;1.90;;
51862;SDS011;37900;52.996;6.278;2022-10-28T03:01:39;3.38;;;2.42;;
51862;SDS011;37900;52.996;6.278;2022-10-28T03:04:05;1.98;;;1.75;;
51862;SDS011;37900;52.996;6.278;2022-10-28T03:06:31;2.45;;;1.80;;
51862;SDS011;37900;52.996;6.278;2022-10-28T03:08:56;3.30;;;2.22;;
51862;SDS011;37900;52.996;6.278;2022-10-28T03:11:22;2.80;;;2.10;;
51862;SDS011;37900;52.996;6.278;2022-10-28T03:13:48;2.63;;;2.10;;
51862;SDS011;37900;52.996;6.278;2022-10-28T03:16:13;3.03;;;1.92;;
51862;SDS011;37900;52.996;6.278;2022-10-28T03:18:39;2.35;;;1.90;;
51862;SDS011;37900;52.996;6.278;2022-10-28T03:21:05;3.10;;;2.22;;
51862;SDS011;37900;52.996;6.278;2022-10-28T03:23:31;3.10;;;2.17;;
51862;SDS011;37900;52.996;6.278;2022-10-28T03:25:56;4.07;;;2.00;;
51862;SDS011;37900;52.996;6.278;2022-10-28T03:28:22;2.55;;;2.00;;
51862;SDS011;37900;52.996;6.278;2022-10-28T03:30:48;3.20;;;2.22;;
51862;SDS011;37900;52.996;6.278;2022-10-28T03:33:13;2.58;;;1.67;;
51862;SDS011;37900;52.996;6.278;2022-10-28T03:35:39;3.65;;;2.30;;
51862;SDS011;37900;52.996;6.278;2022-10-28T03:38:05;2.38;;;1.90;;
51862;SDS011;37900;52.996;6.278;2022-10-28T03:40:31;3.45;;;2.38;;
51862;SDS011;37900;52.996;6.278;2022-10-28T03:42:58;3.20;;;2.15;;
51862;SDS011;37900;52.996;6.278;2022-10-28T03:45:24;3.80;;;2.40;;
51862;SDS011;37900;52.996;6.278;2022-10-28T03:47:49;3.67;;;2.05;;
51862;SDS011;37900;52.996;6.278;2022-10-28T03:50:15;2.70;;;1.95;;
51862;SDS011;37900;52.996;6.278;2022-10-28T03:52:41;3.00;;;2.30;;
51862;SDS011;37900;52.996;6.278;2022-10-28T03:57:34;3.05;;;2.20;;
51862;SDS011;37900;52.996;6.278;2022-10-28T03:59:59;2.40;;;1.95;;
51862;SDS011;37900;52.996;6.278;2022-10-28T04:02:25;2.80;;;1.90;;
51862;SDS011;37900;52.996;6.278;2022-10-28T04:04:51;4.75;;;2.58;;
51862;SDS011;37900;52.996;6.278;2022-10-28T04:07:17;2.30;;;1.73;;
51862;SDS011;37900;52.996;6.278;2022-10-28T04:09:42;3.20;;;2.13;;
51862;SDS011;37900;52.996;6.278;2022-10-28T04:12:08;3.53;;;2.13;;
51862;SDS011;37900;52.996;6.278;2022-10-28T04:14:35;2.67;;;1.80;;
51862;SDS011;37900;52.996;6.278;2022-10-28T04:17:01;4.07;;;2.13;;
51862;SDS011;37900;52.996;6.278;2022-10-28T04:19:26;2.47;;;1.80;;
51862;SDS011;37900;52.996;6.278;2022-10-28T04:21:52;2.47;;;1.90;;
51862;SDS011;37900;52.996;6.278;2022-10-28T04:24:18;2.75;;;2.17;;
51862;SDS011;37900;52.996;6.278;2022-10-28T04:26:44;2.58;;;2.05;;
51862;SDS011;37900;52.996;6.278;2022-10-28T04:29:09;2.78;;;2.17;;
51862;SDS011;37900;52.996;6.278;2022-10-28T04:31:35;2.47;;;2.20;;
51862;SDS011;37900;52.996;6.278;2022-10-28T04:34:01;2.38;;;2.00;;
51862;SDS011;37900;52.996;6.278;2022-10-28T04:36:26;3.22;;;2.20;;
51862;SDS011;37900;52.996;6.278;2022-10-28T04:38:52;2.83;;;2.10;;
51862;SDS011;37900;52.996;6.278;2022-10-28T04:41:18;2.75;;;2.20;;
51862;SDS011;37900;52.996;6.278;2022-10-28T04:43:43;2.67;;;2.08;;
51862;SDS011;37900;52.996;6.278;2022-10-28T04:46:09;3.30;;;2.08;;
51862;SDS011;37900;52.996;6.278;2022-10-28T04:48:35;2.88;;;1.90;;
51862;SDS011;37900;52.996;6.278;2022-10-28T04:51:01;2.65;;;1.90;;
51862;SDS011;37900;52.996;6.278;2022-10-28T04:53:27;3.10;;;2.42;;
51862;SDS011;37900;52.996;6.278;2022-10-28T04:55:56;2.38;;;2.03;;
51862;SDS011;37900;52.996;6.278;2022-10-28T04:58:22;2.60;;;2.17;;
51862;SDS011;37900;52.996;6.278;2022-10-28T05:00:48;3.22;;;2.00;;
51862;SDS011;37900;52.996;6.278;2022-10-28T05:03:14;2.80;;;1.83;;
51862;SDS011;37900;52.996;6.278;2022-10-28T05:05:40;2.45;;;1.88;;
51862;SDS011;37900;52.996;6.278;2022-10-28T05:08:06;2.45;;;1.77;;
51862;SDS011;37900;52.996;6.278;2022-10-28T05:10:32;2.28;;;1.85;;
51862;SDS011;37900;52.996;6.278;2022-10-28T05:12:57;2.20;;;1.92;;
51862;SDS011;37900;52.996;6.278;2022-10-28T05:15:23;3.00;;;2.17;;
51862;SDS011;37900;52.996;6.278;2022-10-28T05:17:50;2.90;;;1.95;;
51862;SDS011;37900;52.996;6.278;2022-10-28T05:20:17;3.63;;;2.00;;
51862;SDS011;37900;52.996;6.278;2022-10-28T05:22:45;3.28;;;2.17;;
51862;SDS011;37900;52.996;6.278;2022-10-28T05:25:15;2.47;;;2.00;;
51862;SDS011;37900;52.996;6.278;2022-10-28T05:27:41;2.60;;;2.30;;
51862;SDS011;37900;52.996;6.278;2022-10-28T05:30:07;2.40;;;2.03;;
51862;SDS011;37900;52.996;6.278;2022-10-28T05:32:34;2.60;;;1.98;;
51862;SDS011;37900;52.996;6.278;2022-10-28T05:35:00;3.15;;;2.22;;
51862;SDS011;37900;52.996;6.278;2022-10-28T05:37:26;3.78;;;2.00;;
51862;SDS011;37900;52.996;6.278;2022-10-28T05:39:52;3.55;;;2.20;;
51862;SDS011;37900;52.996;6.278;2022-10-28T05:42:17;2.47;;;1.90;;
51862;SDS011;37900;52.996;6.278;2022-10-28T05:44:43;2.75;;;2.10;;
51862;SDS011;37900;52.996;6.278;2022-10-28T05:47:09;2.95;;;1.85;;
51862;SDS011;37900;52.996;6.278;2022-10-28T05:49:35;2.30;;;1.80;;
51862;SDS011;37900;52.996;6.278;2022-10-28T05:52:00;2.85;;;2.08;;
51862;SDS011;37900;52.996;6.278;2022-10-28T05:54:26;3.08;;;1.90;;
51862;SDS011;37900;52.996;6.278;2022-10-28T05:56:52;3.15;;;2.28;;
51862;SDS011;37900;52.996;6.278;2022-10-28T05:59:17;2.50;;;2.00;;
51862;SDS011;37900;52.996;6.278;2022-10-28T06:01:43;3.38;;;2.40;;
51862;SDS011;37900;52.996;6.278;2022-10-28T06:04:09;3.10;;;2.45;;
51862;SDS011;37900;52.996;6.278;2022-10-28T06:06:35;2.63;;;2.17;;
51862;SDS011;37900;52.996;6.278;2022-10-28T06:09:00;2.05;;;1.85;;
51862;SDS011;37900;52.996;6.278;2022-10-28T06:11:26;2.30;;;1.90;;
51862;SDS011;37900;52.996;6.278;2022-10-28T06:13:52;3.55;;;2.00;;
51862;SDS011;37900;52.996;6.278;2022-10-28T06:16:18;2.58;;;1.90;;
51862;SDS011;37900;52.996;6.278;2022-10-28T06:18:44;3.03;;;2.00;;
51862;SDS011;37900;52.996;6.278;2022-10-28T06:21:09;2.38;;;1.90;;
51862;SDS011;37900;52.996;6.278;2022-10-28T06:23:35;3.75;;;2.28;;
51862;SDS011;37900;52.996;6.278;2022-10-28T06:26:02;2.33;;;2.00;;
51862;SDS011;37900;52.996;6.278;2022-10-28T06:28:28;3.15;;;2.40;;
51862;SDS011;37900;52.996;6.278;2022-10-28T06:31:04;2.47;;;2.00;;
51862;SDS011;37900;52.996;6.278;2022-10-28T06:33:32;2.15;;;1.85;;
51862;SDS011;37900;52.996;6.278;2022-10-28T06:35:59;2.80;;;2.20;;
51862;SDS011;37900;52.996;6.278;2022-10-28T06:38:25;2.83;;;2.05;;
51862;SDS011;37900;52.996;6.278;2022-10-28T06:40:52;2.10;;;1.85;;
51862;SDS011;37900;52.996;6.278;2022-10-28T06:43:18;1.95;;;1.65;;
51862;SDS011;37900;52.996;6.278;2022-10-28T06:45:44;2.63;;;2.20;;
51862;SDS011;37900;52.996;6.278;2022-10-28T06:48:11;2.78;;;1.95;;
51862;SDS011;37900;52.996;6.278;2022-10-28T06:50:37;3.03;;;2.30;;
51862;SDS011;37900;52.996;6.278;2022-10-28T06:53:03;2.75;;;2.28;;
51862;SDS011;37900;52.996;6.278;2022-10-28T06:55:29;2.72;;;2.10;;
51862;SDS011;37900;52.996;6.278;2022-10-28T06:57:59;2.13;;;1.83;;
51862;SDS011;37900;52.996;6.278;2022-10-28T07:00:26;3.13;;;2.20;;
51862;SDS011;37900;52.996;6.278;2022-10-28T07:02:54;2.47;;;1.95;;
51862;SDS011;37900;52.996;6.278;2022-10-28T07:05:20;2.72;;;1.90;;
51862;SDS011;37900;52.996;6.278;2022-10-28T07:07:47;3.13;;;2.20;;
51862;SDS011;37900;52.996;6.278;2022-10-28T07:10:13;2.30;;;1.98;;
51862;SDS011;37900;52.996;6.278;2022-10-28T07:12:39;3.40;;;2.42;;
51862;SDS011;37900;52.996;6.278;2022-10-28T07:15:05;2.22;;;2.03;;
51862;SDS011;37900;52.996;6.278;2022-10-28T07:17:31;2.63;;;1.75;;
51862;SDS011;37900;52.996;6.278;2022-10-28T07:19:57;2.72;;;1.90;;
51862;SDS011;37900;52.996;6.278;2022-10-28T07:22:23;2.65;;;2.00;;
51862;SDS011;37900;52.996;6.278;2022-10-28T07:24:48;3.70;;;2.00;;
51862;SDS011;37900;52.996;6.278;2022-10-28T07:27:14;3.10;;;1.88;;
51862;SDS011;37900;52.996;6.278;2022-10-28T07:29:40;3.15;;;2.00;;
51862;SDS011;37900;52.996;6.278;2022-10-28T07:32:05;2.88;;;1.88;;
51862;SDS011;37900;52.996;6.278;2022-10-28T07:34:31;4.22;;;2.10;;
51862;SDS011;37900;52.996;6.278;2022-10-28T07:36:57;3.08;;;2.22;;
51862;SDS011;37900;52.996;6.278;2022-10-28T07:39:23;3.00;;;2.15;;
51862;SDS011;37900;52.996;6.278;2022-10-28T07:41:49;3.38;;;2.28;;
51862;SDS011;37900;52.996;6.278;2022-10-28T07:44:14;3.03;;;2.10;;
51862;SDS011;37900;52.996;6.278;2022-10-28T07:46:40;2.20;;;1.80;;
51862;SDS011;37900;52.996;6.278;2022-10-28T07:49:06;4.78;;;2.90;;
51862;SDS011;37900;52.996;6.278;2022-10-28T07:51:32;3.95;;;3.13;;
51862;SDS011;37900;52.996;6.278;2022-10-28T07:53:58;4.95;;;3.25;;
51862;SDS011;37900;52.996;6.278;2022-10-28T07:56:24;4.47;;;2.63;;
51862;SDS011;37900;52.996;6.278;2022-10-28T07:58:51;3.58;;;2.78;;
51862;SDS011;37900;52.996;6.278;2022-10-28T08:01:17;4.55;;;3.20;;
51862;SDS011;37900;52.996;6.278;2022-10-28T08:03:44;3.42;;;2.58;;
51862;SDS011;37900;52.996;6.278;2022-10-28T08:06:12;4.25;;;2.83;;
51862;SDS011;37900;52.996;6.278;2022-10-28T08:08:43;5.25;;;3.08;;
51862;SDS011;37900;52.996;6.278;2022-10-28T08:11:14;3.03;;;2.50;;
51862;SDS011;37900;52.996;6.278;2022-10-28T08:13:43;3.63;;;2.28;;
51862;SDS011;37900;52.996;6.278;2022-10-28T08:16:09;3.80;;;2.40;;
51862;SDS011;37900;52.996;6.278;2022-10-28T08:18:35;3.30;;;2.45;;
51862;SDS011;37900;52.996;6.278;2022-10-28T08:21:02;5.03;;;2.70;;
51862;SDS011;37900;52.996;6.278;2022-10-28T08:23:29;3.47;;;2.20;;
51862;SDS011;37900;52.996;6.278;2022-10-28T08:25:55;4.13;;;2.55;;
51862;SDS011;37900;52.996;6.278;2022-10-28T08:28:21;3.63;;;2.47;;
51862;SDS011;37900;52.996;6.278;2022-10-28T08:30:48;3.78;;;3.28;;
51862;SDS011;37900;52.996;6.278;2022-10-28T08:33:14;3.13;;;2.35;;
51862;SDS011;37900;52.996;6.278;2022-10-28T08:35:40;3.85;;;2.60;;
51862;SDS011;37900;52.996;6.278;2022-10-28T08:38:06;4.90;;;2.67;;
51862;SDS011;37900;52.996;6.278;2022-10-28T08:40:39;4.45;;;3.00;;
51862;SDS011;37900;52.996;6.278;2022-10-28T08:43:25;4.30;;;2.70;;
51862;SDS011;37900;52.996;6.278;2022-10-28T08:46:11;3.50;;;2.40;;
51862;SDS011;37900;52.996;6.278;2022-10-28T08:48:43;2.97;;;2.67;;
51862;SDS011;37900;52.996;6.278;2022-10-28T08:51:16;4.18;;;2.88;;
51862;SDS011;37900;52.996;6.278;2022-10-28T08:53:47;5.87;;;3.07;;
51862;SDS011;37900;52.996;6.278;2022-10-28T08:56:23;3.33;;;2.33;;
51862;SDS011;37900;52.996;6.278;2022-10-28T08:58:55;4.88;;;2.38;;
51862;SDS011;37900;52.996;6.278;2022-10-28T09:04:09;4.63;;;2.50;;
51862;SDS011;37900;52.996;6.278;2022-10-28T09:06:44;4.72;;;2.60;;
51862;SDS011;37900;52.996;6.278;2022-10-28T09:09:16;3.15;;;2.60;;
51862;SDS011;37900;52.996;6.278;2022-10-28T09:14:25;3.92;;;2.60;;
51862;SDS011;37900;52.996;6.278;2022-10-28T09:17:09;2.95;;;2.33;;
51862;SDS011;37900;52.996;6.278;2022-10-28T09:22:21;3.45;;;2.60;;
51862;SDS011;37900;52.996;6.278;2022-10-28T09:25:16;3.65;;;2.50;;
51862;SDS011;37900;52.996;6.278;2022-10-28T09:33:38;2.78;;;2.50;;
51862;SDS011;37900;52.996;6.278;2022-10-28T09:36:13;3.15;;;2.30;;
51862;SDS011;37900;52.996;6.278;2022-10-28T09:38:47;4.15;;;2.53;;
51862;SDS011;37900;52.996;6.278;2022-10-28T09:41:21;3.50;;;2.90;;
51862;SDS011;37900;52.996;6.278;2022-10-28T09:43:51;3.42;;;2.50;;
51862;SDS011;37900;52.996;6.278;2022-10-28T09:46:21;3.17;;;2.63;;
51862;SDS011;37900;52.996;6.278;2022-10-28T09:48:50;4.22;;;3.00;;
51862;SDS011;37900;52.996;6.278;2022-10-28T09:53:54;9.45;;;6.10;;
51862;SDS011;37900;52.996;6.278;2022-10-28T09:56:22;12.88;;;6.18;;
51862;SDS011;37900;52.996;6.278;2022-10-28T09:58:50;8.38;;;5.40;;
51862;SDS011;37900;52.996;6.278;2022-10-28T10:01:18;8.05;;;4.53;;
51862;SDS011;37900;52.996;6.278;2022-10-28T10:03:46;8.48;;;4.78;;
51862;SDS011;37900;52.996;6.278;2022-10-28T10:08:59;6.90;;;4.78;;
51862;SDS011;37900;52.996;6.278;2022-10-28T10:11:39;6.60;;;4.32;;
51862;SDS011;37900;52.996;6.278;2022-10-28T10:14:09;6.72;;;3.42;;
51862;SDS011;37900;52.996;6.278;2022-10-28T10:16:44;8.38;;;4.00;;
51862;SDS011;37900;52.996;6.278;2022-10-28T10:19:15;9.05;;;4.13;;
51862;SDS011;37900;52.996;6.278;2022-10-28T10:24:33;6.38;;;3.90;;
51862;SDS011;37900;52.996;6.278;2022-10-28T10:27:01;5.55;;;3.60;;
51862;SDS011;37900;52.996;6.278;2022-10-28T10:29:48;6.53;;;4.00;;
51862;SDS011;37900;52.996;6.278;2022-10-28T10:32:31;4.97;;;3.58;;
51862;SDS011;37900;52.996;6.278;2022-10-28T10:35:02;7.60;;;3.70;;
51862;SDS011;37900;52.996;6.278;2022-10-28T10:37:32;6.93;;;3.88;;
51862;SDS011;37900;52.996;6.278;2022-10-28T10:40:01;6.32;;;3.60;;
51862;SDS011;37900;52.996;6.278;2022-10-28T10:42:29;9.75;;;3.85;;
51862;SDS011;37900;52.996;6.278;2022-10-28T10:45:01;6.75;;;3.88;;
51862;SDS011;37900;52.996;6.278;2022-10-28T10:47:39;6.05;;;3.72;;
51862;SDS011;37900;52.996;6.278;2022-10-28T10:52:56;6.28;;;3.75;;
51862;SDS011;37900;52.996;6.278;2022-10-28T10:55:31;7.30;;;4.00;;
51862;SDS011;37900;52.996;6.278;2022-10-28T10:58:00;5.35;;;3.33;;
51862;SDS011;37900;52.996;6.278;2022-10-28T11:00:29;5.72;;;3.50;;
51862;SDS011;37900;52.996;6.278;2022-10-28T11:03:14;4.97;;;3.42;;
51862;SDS011;37900;52.996;6.278;2022-10-28T11:05:51;4.70;;;3.50;;
51862;SDS011;37900;52.996;6.278;2022-10-28T11:11:03;4.75;;;3.15;;
51862;SDS011;37900;52.996;6.278;2022-10-28T11:13:35;4.60;;;3.38;;
51862;SDS011;37900;52.996;6.278;2022-10-28T11:16:02;4.22;;;3.35;;
51862;SDS011;37900;52.996;6.278;2022-10-28T11:18:37;4.18;;;2.80;;
51862;SDS011;37900;52.996;6.278;2022-10-28T11:26:19;5.60;;;3.28;;
51862;SDS011;37900;52.996;6.278;2022-10-28T11:28:50;5.05;;;3.55;;
51862;SDS011;37900;52.996;6.278;2022-10-28T11:45:40;4.78;;;2.72;;
51862;SDS011;37900;52.996;6.278;2022-10-28T11:58:39;4.75;;;3.67;;
51862;SDS011;37900;52.996;6.278;2022-10-28T12:06:52;3.88;;;2.95;;
51862;SDS011;37900;52.996;6.278;2022-10-28T12:20:18;6.90;;;3.63;;
51862;SDS011;37900;52.996;6.278;2022-10-28T12:23:00;4.53;;;2.97;;
51862;SDS011;37900;52.996;6.278;2022-10-28T12:25:32;5.93;;;3.83;;
51862;SDS011;37900;52.996;6.278;2022-10-28T12:28:02;5.90;;;2.97;;
51862;SDS011;37900;52.996;6.278;2022-10-28T12:30:40;5.85;;;3.08;;
51862;SDS011;37900;52.996;6.278;2022-10-28T12:33:14;4.20;;;3.40;;
51862;SDS011;37900;52.996;6.278;2022-10-28T12:35:51;4.88;;;3.15;;
51862;SDS011;37900;52.996;6.278;2022-10-28T12:41:25;4.43;;;3.30;;
51862;SDS011;37900;52.996;6.278;2022-10-28T12:43:56;4.40;;;3.38;;
51862;SDS011;37900;52.996;6.278;2022-10-28T12:46:42;5.35;;;3.08;;
51862;SDS011;37900;52.996;6.278;2022-10-28T12:49:24;4.63;;;3.03;;
51862;SDS011;37900;52.996;6.278;2022-10-28T12:52:12;5.22;;;3.28;;
51862;SDS011;37900;52.996;6.278;2022-10-28T12:54:50;5.88;;;2.95;;
51862;SDS011;37900;52.996;6.278;2022-10-28T12:57:24;4.63;;;3.15;;
51862;SDS011;37900;52.996;6.278;2022-10-28T12:59:52;4.53;;;3.05;;
51862;SDS011;37900;52.996;6.278;2022-10-28T13:02:37;4.20;;;3.13;;
51862;SDS011;37900;52.996;6.278;2022-10-28T13:05:23;5.07;;;3.67;;
51862;SDS011;37900;52.996;6.278;2022-10-28T13:10:41;4.05;;;2.95;;
51862;SDS011;37900;52.996;6.278;2022-10-28T13:13:42;4.35;;;3.28;;
51862;SDS011;37900;52.996;6.278;2022-10-28T13:24:34;7.70;;;3.40;;
51862;SDS011;37900;52.996;6.278;2022-10-28T13:27:23;4.53;;;3.45;;
51862;SDS011;37900;52.996;6.278;2022-10-28T13:29:50;6.00;;;3.88;;
51862;SDS011;37900;52.996;6.278;2022-10-28T13:34:59;5.97;;;3.47;;
51862;SDS011;37900;52.996;6.278;2022-10-28T13:37:33;7.75;;;3.65;;
51862;SDS011;37900;52.996;6.278;2022-10-28T13:40:02;6.00;;;3.67;;
51862;SDS011;37900;52.996;6.278;2022-10-28T13:42:29;8.60;;;3.95;;
51862;SDS011;37900;52.996;6.278;2022-10-28T13:44:59;5.45;;;3.40;;
51862;SDS011;37900;52.996;6.278;2022-10-28T13:47:31;7.47;;;4.22;;
51862;SDS011;37900;52.996;6.278;2022-10-28T13:52:33;9.60;;;4.25;;
51862;SDS011;37900;52.996;6.278;2022-10-28T13:57:38;7.00;;;4.30;;
51862;SDS011;37900;52.996;6.278;2022-10-28T14:00:32;10.38;;;4.18;;
51862;SDS011;37900;52.996;6.278;2022-10-28T14:02:57;6.15;;;3.88;;
51862;SDS011;37900;52.996;6.278;2022-10-28T14:11:08;8.80;;;4.57;;
51862;SDS011;37900;52.996;6.278;2022-10-28T14:13:38;9.05;;;4.97;;
51862;SDS011;37900;52.996;6.278;2022-10-28T14:19:15;9.07;;;4.22;;
51862;SDS011;37900;52.996;6.278;2022-10-28T14:22:00;6.03;;;3.92;;
51862;SDS011;37900;52.996;6.278;2022-10-28T14:29:46;6.82;;;4.35;;
51862;SDS011;37900;52.996;6.278;2022-10-28T14:34:55;6.90;;;4.47;;
51862;SDS011;37900;52.996;6.278;2022-10-28T14:47:51;6.47;;;4.78;;
51862;SDS011;37900;52.996;6.278;2022-10-28T14:50:39;7.40;;;4.82;;
51862;SDS011;37900;52.996;6.278;2022-10-28T14:53:13;7.20;;;4.25;;
51862;SDS011;37900;52.996;6.278;2022-10-28T14:55:44;9.55;;;5.13;;
51862;SDS011;37900;52.996;6.278;2022-10-28T14:58:23;8.07;;;4.55;;
51862;SDS011;37900;52.996;6.278;2022-10-28T15:01:17;6.13;;;4.22;;
51862;SDS011;37900;52.996;6.278;2022-10-28T15:03:52;6.85;;;4.55;;
51862;SDS011;37900;52.996;6.278;2022-10-28T15:09:03;10.70;;;5.63;;
51862;SDS011;37900;52.996;6.278;2022-10-28T15:11:43;8.45;;;5.18;;
51862;SDS011;37900;52.996;6.278;2022-10-28T15:14:54;10.65;;;5.47;;
51862;SDS011;37900;52.996;6.278;2022-10-28T15:17:09;7.53;;;4.85;;
51862;SDS011;37900;52.996;6.278;2022-10-28T15:19:36;8.82;;;4.78;;
51862;SDS011;37900;52.996;6.278;2022-10-28T15:22:03;9.02;;;4.20;;
51862;SDS011;37900;52.996;6.278;2022-10-28T15:24:31;8.77;;;4.38;;
51862;SDS011;37900;52.996;6.278;2022-10-28T15:26:57;7.10;;;4.25;;
51862;SDS011;37900;52.996;6.278;2022-10-28T15:29:24;8.50;;;4.47;;
51862;SDS011;37900;52.996;6.278;2022-10-28T15:32:04;9.07;;;5.43;;
51862;SDS011;37900;52.996;6.278;2022-10-28T15:34:36;9.80;;;4.55;;
51862;SDS011;37900;52.996;6.278;2022-10-28T15:37:02;7.60;;;5.05;;
51862;SDS011;37900;52.996;6.278;2022-10-28T15:39:29;8.07;;;4.28;;
51862;SDS011;37900;52.996;6.278;2022-10-28T15:41:55;6.90;;;4.55;;
51862;SDS011;37900;52.996;6.278;2022-10-28T15:44:31;6.30;;;4.72;;
51862;SDS011;37900;52.996;6.278;2022-10-28T15:46:59;8.23;;;4.63;;
51862;SDS011;37900;52.996;6.278;2022-10-28T15:49:41;8.95;;;4.75;;
51862;SDS011;37900;52.996;6.278;2022-10-28T15:54:41;9.30;;;4.50;;
51862;SDS011;37900;52.996;6.278;2022-10-28T15:57:24;8.00;;;4.20;;
51862;SDS011;37900;52.996;6.278;2022-10-28T16:00:15;6.30;;;4.67;;
51862;SDS011;37900;52.996;6.278;2022-10-28T16:03:04;7.10;;;4.55;;
51862;SDS011;37900;52.996;6.278;2022-10-28T16:10:51;9.82;;;4.65;;
51862;SDS011;37900;52.996;6.278;2022-10-28T16:13:23;6.80;;;4.07;;
51862;SDS011;37900;52.996;6.278;2022-10-28T16:15:51;7.03;;;4.68;;
51862;SDS011;37900;52.996;6.278;2022-10-28T16:18:24;6.50;;;4.50;;
51862;SDS011;37900;52.996;6.278;2022-10-28T16:20:52;7.38;;;4.95;;
51862;SDS011;37900;52.996;6.278;2022-10-28T16:23:20;8.48;;;4.00;;
51862;SDS011;37900;52.996;6.278;2022-10-28T16:25:48;5.40;;;4.15;;
51862;SDS011;37900;52.996;6.278;2022-10-28T16:28:26;6.70;;;4.35;;
51862;SDS011;37900;52.996;6.278;2022-10-28T16:30:53;9.30;;;4.43;;
51862;SDS011;37900;52.996;6.278;2022-10-28T16:33:24;8.43;;;4.70;;
51862;SDS011;37900;52.996;6.278;2022-10-28T16:35:56;7.03;;;4.55;;
51862;SDS011;37900;52.996;6.278;2022-10-28T16:38:23;7.85;;;4.43;;
51862;SDS011;37900;52.996;6.278;2022-10-28T16:40:49;6.72;;;4.00;;
51862;SDS011;37900;52.996;6.278;2022-10-28T16:43:16;5.35;;;4.30;;
51862;SDS011;37900;52.996;6.278;2022-10-28T16:45:44;6.05;;;4.03;;
51862;SDS011;37900;52.996;6.278;2022-10-28T16:48:14;6.75;;;4.15;;
51862;SDS011;37900;52.996;6.278;2022-10-28T16:50:42;6.45;;;4.45;;
51862;SDS011;37900;52.996;6.278;2022-10-28T16:53:11;7.93;;;3.83;;
51862;SDS011;37900;52.996;6.278;2022-10-28T16:55:38;8.30;;;5.05;;
51862;SDS011;37900;52.996;6.278;2022-10-28T16:58:05;8.55;;;4.30;;
51862;SDS011;37900;52.996;6.278;2022-10-28T17:00:30;8.25;;;4.40;;
51862;SDS011;37900;52.996;6.278;2022-10-28T17:02:56;9.13;;;4.50;;
51862;SDS011;37900;52.996;6.278;2022-10-28T17:05:22;7.07;;;4.10;;
51862;SDS011;37900;52.996;6.278;2022-10-28T17:07:49;6.22;;;4.13;;
51862;SDS011;37900;52.996;6.278;2022-10-28T17:10:15;6.45;;;4.30;;
51862;SDS011;37900;52.996;6.278;2022-10-28T17:12:41;6.30;;;3.80;;
51862;SDS011;37900;52.996;6.278;2022-10-28T17:15:07;8.27;;;4.82;;
51862;SDS011;37900;52.996;6.278;2022-10-28T17:17:34;8.32;;;4.13;;
51862;SDS011;37900;52.996;6.278;2022-10-28T17:20:00;6.00;;;4.13;;
51862;SDS011;37900;52.996;6.278;2022-10-28T17:22:26;7.78;;;3.63;;
51862;SDS011;37900;52.996;6.278;2022-10-28T17:24:52;8.90;;;4.47;;
51862;SDS011;37900;52.996;6.278;2022-10-28T17:27:18;6.47;;;4.30;;
51862;SDS011;37900;52.996;6.278;2022-10-28T17:29:44;5.20;;;3.83;;
51862;SDS011;37900;52.996;6.278;2022-10-28T17:32:10;7.18;;;4.25;;
51862;SDS011;37900;52.996;6.278;2022-10-28T17:34:36;5.20;;;3.70;;
51862;SDS011;37900;52.996;6.278;2022-10-28T17:37:02;7.80;;;4.13;;
51862;SDS011;37900;52.996;6.278;2022-10-28T17:39:27;9.25;;;4.50;;
51862;SDS011;37900;52.996;6.278;2022-10-28T17:41:54;7.18;;;3.90;;
51862;SDS011;37900;52.996;6.278;2022-10-28T17:44:19;6.65;;;3.78;;
51862;SDS011;37900;52.996;6.278;2022-10-28T17:46:48;6.53;;;3.67;;
51862;SDS011;37900;52.996;6.278;2022-10-28T17:49:15;7.43;;;4.20;;
51862;SDS011;37900;52.996;6.278;2022-10-28T17:51:41;9.18;;;3.88;;
51862;SDS011;37900;52.996;6.278;2022-10-28T17:54:07;6.28;;;4.50;;
51862;SDS011;37900;52.996;6.278;2022-10-28T17:56:33;9.55;;;4.40;;
51862;SDS011;37900;52.996;6.278;2022-10-28T17:58:59;7.47;;;4.75;;
51862;SDS011;37900;52.996;6.278;2022-10-28T18:01:25;8.67;;;4.40;;
51862;SDS011;37900;52.996;6.278;2022-10-28T18:03:52;8.68;;;4.50;;